createdAt,value
2022-08-04T00:00:31.301Z,22.60
2022-08-04T00:01:53.701Z,22.50
2022-08-04T00:03:12.189Z,22.60
2022-08-04T00:04:22.309Z,22.60
2022-08-04T00:05:43.532Z,22.50
2022-08-04T00:06:51.053Z,22.60
2022-08-04T00:08:14.322Z,22.60
2022-08-04T00:09:38.798Z,22.50
2022-08-04T00:10:44.480Z,22.50
2022-08-04T00:11:49.257Z,22.40
2022-08-04T00:12:54.805Z,22.40
2022-08-04T00:14:06.494Z,22.40
2022-08-04T00:15:15.083Z,22.40
2022-08-04T00:16:19.014Z,22.30
2022-08-04T00:17:36.891Z,22.30
2022-08-04T00:19:00.178Z,22.30
2022-08-04T00:20:04.717Z,22.20
2022-08-04T00:21:10.033Z,22.20
2022-08-04T00:22:22.037Z,22.20
2022-08-04T00:23:26.475Z,22.20
2022-08-04T00:24:31.419Z,22.20
2022-08-04T00:25:33.541Z,22.10
2022-08-04T00:26:35.500Z,22.10
2022-08-04T00:27:38.185Z,22.10
2022-08-04T00:28:40.261Z,22.10
2022-08-04T00:29:42.321Z,22.00
2022-08-04T00:30:44.086Z,22.00
2022-08-04T00:31:56.814Z,22.00
2022-08-04T00:33:00.713Z,21.90
2022-08-04T00:34:04.445Z,21.90
2022-08-04T00:35:09.582Z,21.90
2022-08-04T00:36:12.506Z,21.90
2022-08-04T00:37:15.133Z,21.90
2022-08-04T00:38:18.428Z,21.90
2022-08-04T00:39:21.176Z,21.90
2022-08-04T00:40:25.082Z,21.80
2022-08-04T00:41:56.395Z,21.80
2022-08-04T00:43:17.752Z,21.80
2022-08-04T00:44:31.339Z,21.70
2022-08-04T00:46:15.852Z,21.70
2022-08-04T00:47:22.998Z,21.70
2022-08-04T00:49:02.196Z,21.70
2022-08-04T00:50:11.229Z,21.70
2022-08-04T00:51:45.421Z,21.60
2022-08-04T00:52:46.979Z,21.50
2022-08-04T00:54:07.382Z,21.60
2022-08-04T00:55:36.658Z,21.60
2022-08-04T00:57:29.947Z,21.60
2022-08-04T00:58:47.927Z,21.60
2022-08-04T01:00:16.045Z,21.50
2022-08-04T01:01:43.724Z,21.50
2022-08-04T01:02:57.453Z,21.50
2022-08-04T01:04:10.973Z,21.50
2022-08-04T01:05:29.869Z,21.60
2022-08-04T01:06:57.348Z,21.60
2022-08-04T01:08:04.473Z,21.50
2022-08-04T01:09:45.432Z,21.50
2022-08-04T01:10:55.705Z,21.50
2022-08-04T01:12:04.918Z,21.50
2022-08-04T01:13:40.608Z,21.50
2022-08-04T01:14:55.331Z,21.50
2022-08-04T01:16:18.117Z,21.50
2022-08-04T01:17:35.752Z,21.40
2022-08-04T01:18:52.235Z,21.40
2022-08-04T01:20:03.929Z,21.40
2022-08-04T01:21:11.643Z,21.50
2022-08-04T01:22:31.405Z,21.40
2022-08-04T01:23:54.057Z,21.40
2022-08-04T01:25:11.825Z,21.40
2022-08-04T01:26:43.940Z,21.40
2022-08-04T01:28:19.582Z,21.40
2022-08-04T01:29:24.340Z,21.30
2022-08-04T01:30:33.365Z,21.30
2022-08-04T01:31:52.884Z,21.30
2022-08-04T01:33:04.397Z,21.30
2022-08-04T01:34:09.977Z,21.30
2022-08-04T01:35:22.122Z,21.20
2022-08-04T01:37:03.131Z,21.20
2022-08-04T01:38:30.772Z,21.20
2022-08-04T01:39:47.246Z,21.10
2022-08-04T01:40:53.166Z,21.10
2022-08-04T01:41:57.935Z,21.10
2022-08-04T01:43:01.789Z,21.00
2022-08-04T01:44:05.835Z,21.00
2022-08-04T01:45:09.789Z,21.00
2022-08-04T01:46:16.885Z,21.00
2022-08-04T01:47:21.746Z,20.90
2022-08-04T01:48:25.620Z,20.90
2022-08-04T01:49:32.173Z,20.90
2022-08-04T01:50:44.492Z,20.90
2022-08-04T01:51:49.727Z,20.90
2022-08-04T01:52:55.445Z,20.90
2022-08-04T01:53:57.319Z,20.90
2022-08-04T01:55:01.206Z,20.90
2022-08-04T01:56:04.661Z,20.80
2022-08-04T01:57:38.879Z,20.80
2022-08-04T01:58:31.580Z,20.80
2022-08-04T01:59:35.758Z,20.80
2022-08-04T02:00:41.449Z,20.80
2022-08-04T02:01:43.220Z,20.80
2022-08-04T02:02:46.386Z,20.80
2022-08-04T02:04:20.034Z,20.80
2022-08-04T02:05:17.781Z,20.80
2022-08-04T02:06:40.765Z,20.80
2022-08-04T02:08:08.093Z,20.70
2022-08-04T02:09:26.404Z,20.70
2022-08-04T02:10:35.683Z,20.60
2022-08-04T02:11:40.648Z,20.60
2022-08-04T02:12:51.338Z,20.70
2022-08-04T02:14:06.392Z,20.60
2022-08-04T02:15:24.624Z,20.60
2022-08-04T02:16:52.406Z,20.60
2022-08-04T02:18:30.910Z,20.60
2022-08-04T02:19:35.849Z,20.60
2022-08-04T02:20:45.959Z,20.60
2022-08-04T02:21:55.728Z,20.60
2022-08-04T02:23:05.117Z,20.60
2022-08-04T02:24:08.825Z,20.60
2022-08-04T02:25:11.826Z,20.60
2022-08-04T02:26:33.811Z,20.50
2022-08-04T02:27:59.780Z,20.50
2022-08-04T02:29:16.875Z,20.40
2022-08-04T02:30:19.721Z,20.40
2022-08-04T02:31:32.261Z,20.50
2022-08-04T02:32:39.845Z,20.50
2022-08-04T02:33:52.593Z,20.50
2022-08-04T02:35:15.849Z,20.50
2022-08-04T02:36:24.384Z,20.50
2022-08-04T02:37:26.845Z,20.50
2022-08-04T02:38:48.827Z,20.50
2022-08-04T02:39:53.109Z,20.40
2022-08-04T02:40:59.241Z,20.50
2022-08-04T02:42:04.290Z,20.40
2022-08-04T02:43:08.199Z,20.40
2022-08-04T02:44:10.848Z,20.40
2022-08-04T02:45:13.179Z,20.40
2022-08-04T02:46:18.678Z,20.40
2022-08-04T02:47:22.423Z,20.40
2022-08-04T02:48:31.293Z,20.40
2022-08-04T02:49:36.920Z,20.40
2022-08-04T02:50:44.439Z,20.50
2022-08-04T02:51:50.307Z,20.40
2022-08-04T02:52:53.271Z,20.40
2022-08-04T02:53:58.341Z,20.40
2022-08-04T02:55:02.902Z,20.40
2022-08-04T02:56:08.739Z,20.40
2022-08-04T02:57:12.951Z,20.40
2022-08-04T02:58:20.615Z,20.30
2022-08-04T02:59:26.712Z,20.30
2022-08-04T03:00:29.009Z,20.30
2022-08-04T03:01:32.035Z,20.30
2022-08-04T03:03:06.153Z,20.30
2022-08-04T03:04:26.093Z,20.30
2022-08-04T03:06:01.391Z,20.30
2022-08-04T03:07:26.333Z,20.30
2022-08-04T03:08:44.842Z,20.30
2022-08-04T03:10:15.711Z,20.20
2022-08-04T03:11:34.753Z,20.20
2022-08-04T03:13:08.655Z,20.20
2022-08-04T03:15:07.388Z,20.20
2022-08-04T03:16:36.687Z,20.10
2022-08-04T03:18:01.543Z,20.10
2022-08-04T03:19:17.297Z,20.00
2022-08-04T03:20:27.510Z,19.90
2022-08-04T03:21:55.659Z,19.90
2022-08-04T03:23:15.721Z,19.90
2022-08-04T03:24:20.187Z,19.90
2022-08-04T03:25:57.783Z,19.90
2022-08-04T03:27:24.090Z,19.90
2022-08-04T03:29:00.570Z,19.90
2022-08-04T03:30:10.696Z,19.90
2022-08-04T03:31:59.781Z,19.90
2022-08-04T03:33:48.529Z,19.90
2022-08-04T03:35:04.872Z,19.90
2022-08-04T03:36:37.996Z,19.90
2022-08-04T03:38:13.778Z,19.90
2022-08-04T03:39:28.461Z,20.00
2022-08-04T03:40:54.524Z,19.90
2022-08-04T03:42:18.009Z,19.90
2022-08-04T03:43:58.000Z,19.90
2022-08-04T03:45:23.989Z,19.90
2022-08-04T03:46:58.045Z,19.80
2022-08-04T03:48:23.546Z,19.80
2022-08-04T03:49:37.109Z,19.80
2022-08-04T03:50:45.121Z,19.70
2022-08-04T03:52:33.507Z,19.70
2022-08-04T03:53:53.439Z,19.70
2022-08-04T03:55:07.593Z,19.60
2022-08-04T03:56:30.004Z,19.60
2022-08-04T03:57:59.448Z,19.60
2022-08-04T04:05:27.751Z,19.50
2022-08-04T04:06:41.698Z,19.50
2022-08-04T04:08:12.511Z,19.60
2022-08-04T04:09:52.330Z,19.60
2022-08-04T04:11:07.656Z,19.60
2022-08-04T04:12:24.125Z,19.60
2022-08-04T04:13:47.500Z,19.60
2022-08-04T04:14:53.277Z,19.60
2022-08-04T04:16:24.751Z,19.50
2022-08-04T04:18:13.114Z,19.60
2022-08-04T04:19:42.559Z,19.60
2022-08-04T04:21:09.088Z,19.50
2022-08-04T04:22:10.693Z,19.50
2022-08-04T04:23:22.832Z,19.50
2022-08-04T04:24:43.214Z,19.50
2022-08-04T04:25:47.607Z,19.60
2022-08-04T04:27:21.738Z,19.60
2022-08-04T04:28:46.056Z,19.60
2022-08-04T04:30:08.495Z,19.60
2022-08-04T04:31:39.603Z,19.60
2022-08-04T04:33:17.800Z,19.70
2022-08-04T04:34:53.460Z,19.70
2022-08-04T04:36:15.257Z,19.70
2022-08-04T04:37:31.804Z,19.70
2022-08-04T04:38:57.706Z,19.70
2022-08-04T04:40:24.117Z,19.70
2022-08-04T04:41:44.191Z,19.70
2022-08-04T04:43:18.995Z,19.70
2022-08-04T04:44:33.077Z,19.70
2022-08-04T04:46:06.665Z,19.80
2022-08-04T04:47:43.261Z,19.80
2022-08-04T04:49:47.027Z,19.80
2022-08-04T04:51:07.218Z,19.80
2022-08-04T04:52:22.155Z,19.80
2022-08-04T04:54:00.090Z,19.90
2022-08-04T04:55:31.234Z,19.90
2022-08-04T04:56:40.513Z,20.00
2022-08-04T04:57:53.791Z,20.00
2022-08-04T04:58:58.689Z,20.00
2022-08-04T05:00:09.850Z,20.10
2022-08-04T05:01:23.518Z,20.10
2022-08-04T05:03:15.618Z,20.20
2022-08-04T05:04:45.850Z,20.30
2022-08-04T05:05:56.377Z,20.30
2022-08-04T05:07:25.607Z,20.30
2022-08-04T05:08:48.230Z,20.30
2022-08-04T05:10:03.149Z,20.40
2022-08-04T05:11:28.912Z,20.50
2022-08-04T05:14:35.877Z,20.50
2022-08-04T05:14:49.978Z,20.60
2022-08-04T05:15:56.137Z,20.60
2022-08-04T05:17:06.097Z,20.60
2022-08-04T05:18:12.490Z,20.60
2022-08-04T05:19:39.924Z,20.70
2022-08-04T05:20:48.499Z,20.60
2022-08-04T05:21:56.727Z,20.60
2022-08-04T05:23:02.004Z,20.60
2022-08-04T05:24:08.089Z,20.70
2022-08-04T05:25:23.639Z,20.70
2022-08-04T05:26:35.308Z,20.80
2022-08-04T05:27:41.358Z,20.80
2022-08-04T05:28:53.313Z,20.80
2022-08-04T05:29:59.213Z,20.90
2022-08-04T05:31:23.074Z,20.90
2022-08-04T05:32:29.119Z,21.00
2022-08-04T05:33:41.210Z,21.10
2022-08-04T05:34:52.512Z,21.10
2022-08-04T05:36:18.503Z,21.10
2022-08-04T05:37:22.622Z,21.20
2022-08-04T05:38:29.702Z,21.20
2022-08-04T05:39:47.167Z,21.20
2022-08-04T05:40:50.237Z,21.30
2022-08-04T05:41:55.335Z,21.30
2022-08-04T05:43:00.639Z,21.30
2022-08-04T05:44:03.727Z,21.40
2022-08-04T05:45:08.615Z,21.40
2022-08-04T05:46:11.969Z,21.50
2022-08-04T05:47:15.424Z,21.50
2022-08-04T05:48:17.442Z,21.50
2022-08-04T05:49:21.231Z,21.50
2022-08-04T05:50:24.732Z,21.60
2022-08-04T05:51:28.262Z,21.60
2022-08-04T05:52:31.670Z,21.60
2022-08-04T05:53:34.576Z,21.70
2022-08-04T05:54:38.695Z,21.60
2022-08-04T05:55:48.994Z,21.60
2022-08-04T05:57:04.573Z,21.70
2022-08-04T05:58:07.492Z,21.70
2022-08-04T05:59:12.583Z,21.80
2022-08-04T06:00:38.970Z,21.90
2022-08-04T06:01:55.842Z,22.00
2022-08-04T06:02:59.796Z,22.00
2022-08-04T06:04:06.803Z,22.00
2022-08-04T06:05:15.441Z,22.10
2022-08-04T06:06:19.438Z,22.10
2022-08-04T06:07:21.336Z,22.10
2022-08-04T06:08:24.385Z,22.20
2022-08-04T06:09:26.176Z,22.30
2022-08-04T06:10:29.939Z,22.30
2022-08-04T06:12:01.982Z,22.30
2022-08-04T06:13:01.400Z,22.30
2022-08-04T06:14:07.050Z,22.40
2022-08-04T06:15:13.284Z,22.50
2022-08-04T06:16:28.618Z,22.50
2022-08-04T06:19:56.569Z,22.50
2022-08-04T06:20:03.435Z,22.60
2022-08-04T06:20:34.781Z,22.70
2022-08-04T06:21:39.943Z,22.70
2022-08-04T06:22:44.777Z,22.70
2022-08-04T06:23:53.567Z,22.80
2022-08-04T06:25:04.845Z,22.70
2022-08-04T06:26:09.082Z,22.80
2022-08-04T06:27:13.279Z,22.80
2022-08-04T06:28:16.565Z,22.90
2022-08-04T06:29:36.083Z,23.00
2022-08-04T06:30:40.276Z,23.10
2022-08-04T06:32:29.489Z,23.10
2022-08-04T06:33:27.084Z,23.10
2022-08-04T06:34:30.835Z,23.10
2022-08-04T06:35:33.803Z,23.20
2022-08-04T06:36:38.091Z,23.30
2022-08-04T06:37:41.847Z,23.30
2022-08-04T06:38:45.983Z,23.30
2022-08-04T06:39:48.080Z,23.30
2022-08-04T06:40:50.313Z,23.20
2022-08-04T06:42:02.528Z,23.20
2022-08-04T06:43:16.588Z,23.20
2022-08-04T06:44:22.368Z,23.20
2022-08-04T06:45:28.395Z,23.20
2022-08-04T06:46:31.208Z,23.20
2022-08-04T06:47:33.597Z,23.20
2022-08-04T06:48:35.908Z,23.20
2022-08-04T06:49:44.206Z,23.20
2022-08-04T06:51:24.364Z,23.20
2022-08-04T06:52:24.112Z,23.30
2022-08-04T06:53:27.084Z,23.40
2022-08-04T06:54:29.514Z,23.50
2022-08-04T06:55:33.220Z,23.50
2022-08-04T06:56:35.768Z,23.60
2022-08-04T06:57:39.027Z,23.60
2022-08-04T06:58:41.664Z,23.70
2022-08-04T06:59:50.223Z,23.70
2022-08-04T07:00:54.586Z,23.70
2022-08-04T07:01:57.126Z,23.80
2022-08-04T07:02:59.319Z,23.90
2022-08-04T07:04:01.311Z,23.90
2022-08-04T07:05:07.328Z,23.90
2022-08-04T07:06:14.173Z,23.90
2022-08-04T07:07:18.343Z,24.00
2022-08-04T07:08:21.505Z,23.90
2022-08-04T07:09:23.202Z,23.90
2022-08-04T07:10:27.970Z,23.90
2022-08-04T07:11:39.033Z,24.00
2022-08-04T07:12:46.483Z,24.00
2022-08-04T07:13:50.123Z,24.20
2022-08-04T07:14:52.129Z,24.30
2022-08-04T07:15:54.984Z,24.30
2022-08-04T07:16:58.340Z,24.40
2022-08-04T07:18:01.913Z,24.40
2022-08-04T07:19:10.390Z,24.40
2022-08-04T07:20:13.326Z,24.50
2022-08-04T07:21:21.795Z,24.50
2022-08-04T07:22:26.477Z,24.50
2022-08-04T07:23:28.446Z,24.70
2022-08-04T07:24:33.658Z,24.70
2022-08-04T07:26:00.237Z,24.70
2022-08-04T07:27:00.711Z,24.70
2022-08-04T07:28:02.343Z,24.70
2022-08-04T07:29:04.289Z,24.70
2022-08-04T07:30:06.669Z,24.80
2022-08-04T07:31:16.544Z,24.80
2022-08-04T07:32:34.480Z,24.80
2022-08-04T07:33:38.375Z,24.90
2022-08-04T07:34:41.597Z,25.00
2022-08-04T07:36:09.203Z,25.10
2022-08-04T07:37:13.003Z,25.20
2022-08-04T07:38:14.898Z,25.30
2022-08-04T07:39:27.534Z,25.30
2022-08-04T07:40:31.388Z,25.30
2022-08-04T07:41:36.705Z,25.30
2022-08-04T07:42:39.269Z,25.50
2022-08-04T07:43:41.565Z,25.50
2022-08-04T07:44:45.670Z,25.60
2022-08-04T07:45:47.488Z,25.70
2022-08-04T07:46:49.149Z,25.80
2022-08-04T07:48:04.987Z,25.90
2022-08-04T07:49:07.981Z,26.00
2022-08-04T07:50:11.108Z,26.00
2022-08-04T07:51:13.176Z,26.10
2022-08-04T07:52:16.067Z,26.20
2022-08-04T07:53:55.167Z,26.20
2022-08-04T07:54:41.585Z,26.30
2022-08-04T07:55:45.538Z,26.30
2022-08-04T07:56:49.341Z,26.30
2022-08-04T07:57:51.081Z,26.40
2022-08-04T07:58:52.772Z,26.60
2022-08-04T07:59:54.443Z,26.70
2022-08-04T08:00:56.770Z,26.80
2022-08-04T08:02:02.346Z,26.90
2022-08-04T08:03:04.842Z,26.90
2022-08-04T08:04:08.209Z,26.90
2022-08-04T08:05:13.251Z,27.10
2022-08-04T08:06:18.164Z,27.20
2022-08-04T08:07:34.626Z,27.20
2022-08-04T08:08:39.972Z,27.50
2022-08-04T08:09:41.662Z,27.60
2022-08-04T08:10:47.320Z,27.70
2022-08-04T08:12:38.227Z,27.80
2022-08-04T08:13:14.091Z,27.80
2022-08-04T08:14:17.549Z,27.90
2022-08-04T08:15:20.181Z,27.90
2022-08-04T08:16:23.524Z,28.00
2022-08-04T08:17:27.195Z,28.10
2022-08-04T08:18:30.114Z,28.10
2022-08-04T08:19:33.074Z,28.20
2022-08-04T08:20:35.121Z,28.20
2022-08-04T08:21:37.476Z,28.20
2022-08-04T08:23:01.588Z,28.30
2022-08-04T08:24:07.485Z,28.40
2022-08-04T08:25:14.615Z,28.50
2022-08-04T08:26:16.597Z,28.50
2022-08-04T08:27:19.185Z,28.50
2022-08-04T08:28:21.043Z,28.50
2022-08-04T08:29:24.105Z,28.60
2022-08-04T08:30:31.595Z,28.60
2022-08-04T08:31:57.750Z,28.70
2022-08-04T08:32:56.692Z,28.70
2022-08-04T08:33:59.238Z,28.70
2022-08-04T08:35:01.714Z,28.70
2022-08-04T08:36:06.738Z,28.80
2022-08-04T08:37:41.905Z,28.80
2022-08-04T08:39:01.426Z,28.90
2022-08-04T08:40:41.865Z,28.90
2022-08-04T08:41:55.354Z,28.90
2022-08-04T08:44:05.091Z,29.00
2022-08-04T08:45:12.239Z,29.10
2022-08-04T08:46:53.600Z,29.30
2022-08-04T08:48:39.283Z,29.40
2022-08-04T08:50:04.425Z,29.50
2022-08-04T08:51:18.115Z,29.70
2022-08-04T08:52:56.231Z,29.80
2022-08-04T08:54:15.857Z,29.90
2022-08-04T08:55:37.080Z,30.00
2022-08-04T08:57:20.240Z,30.10
2022-08-04T08:58:46.566Z,30.10
2022-08-04T09:00:00.658Z,30.20
2022-08-04T09:01:21.119Z,30.20
2022-08-04T09:03:04.594Z,30.30
2022-08-04T09:04:32.614Z,30.30
2022-08-04T09:05:46.713Z,30.50
2022-08-04T09:07:03.284Z,30.50
2022-08-04T09:08:26.098Z,30.60
2022-08-04T09:09:53.169Z,30.70
2022-08-04T09:11:02.790Z,30.90
2022-08-04T09:12:17.913Z,31.00
2022-08-04T09:14:00.703Z,30.90
2022-08-04T09:15:23.415Z,31.00
2022-08-04T09:16:40.712Z,30.90
2022-08-04T09:17:54.240Z,31.00
2022-08-04T09:19:01.897Z,31.10
2022-08-04T09:20:12.991Z,31.20
2022-08-04T09:21:44.721Z,31.20
2022-08-04T09:22:54.550Z,31.40
2022-08-04T09:24:36.680Z,31.40
2022-08-04T09:25:46.782Z,31.60
2022-08-04T09:26:59.917Z,31.80
2022-08-04T09:28:37.169Z,31.90
2022-08-04T09:30:05.081Z,32.00
2022-08-04T09:31:12.902Z,32.10
2022-08-04T09:32:39.424Z,32.10
2022-08-04T09:34:10.078Z,32.20
2022-08-04T09:35:21.010Z,32.30
2022-08-04T09:36:43.036Z,32.40
2022-08-04T09:38:22.432Z,32.30
2022-08-04T09:39:37.136Z,32.30
2022-08-04T09:40:53.176Z,32.30
2022-08-04T09:42:09.991Z,32.20
2022-08-04T09:44:43.073Z,32.40
2022-08-04T09:45:43.244Z,32.40
2022-08-04T09:46:59.703Z,32.60
2022-08-04T09:48:21.743Z,32.70
2022-08-04T09:49:38.476Z,32.90
2022-08-04T09:50:46.876Z,32.90
2022-08-04T09:51:57.957Z,33.00
2022-08-04T09:53:03.758Z,33.00
2022-08-04T09:54:30.735Z,33.00
2022-08-04T09:55:54.350Z,33.00
2022-08-04T09:57:26.799Z,33.00
2022-08-04T09:58:58.738Z,33.10
2022-08-04T10:00:05.519Z,33.00
2022-08-04T10:01:11.674Z,33.00
2022-08-04T10:02:17.103Z,33.10
2022-08-04T10:03:22.408Z,33.10
2022-08-04T10:04:26.013Z,33.00
2022-08-04T10:05:58.614Z,33.10
2022-08-04T10:07:18.516Z,33.20
2022-08-04T10:08:51.211Z,33.20
2022-08-04T10:10:17.461Z,33.40
2022-08-04T10:11:54.368Z,33.40
2022-08-04T10:13:37.698Z,33.60
2022-08-04T10:14:56.325Z,33.70
2022-08-04T10:16:15.539Z,33.50
2022-08-04T10:17:51.927Z,33.40
2022-08-04T10:19:11.970Z,33.50
2022-08-04T10:20:49.376Z,33.40
2022-08-04T10:22:29.203Z,33.20
2022-08-04T10:23:56.604Z,33.10
2022-08-04T10:26:02.803Z,33.00
2022-08-04T10:26:58.105Z,33.00
2022-08-04T10:28:10.996Z,33.00
2022-08-04T10:29:30.893Z,33.10
2022-08-04T10:30:35.631Z,33.00
2022-08-04T10:31:45.471Z,33.20
2022-08-04T10:32:52.166Z,33.20
2022-08-04T10:34:20.060Z,33.20
2022-08-04T10:35:24.584Z,33.20
2022-08-04T10:36:31.839Z,33.10
2022-08-04T10:38:00.419Z,33.20
2022-08-04T10:39:12.207Z,33.20
2022-08-04T10:40:42.997Z,33.10
2022-08-04T10:42:00.700Z,33.20
2022-08-04T10:43:29.388Z,33.10
2022-08-04T10:44:55.467Z,33.10
2022-08-04T10:46:05.573Z,33.00
2022-08-04T10:47:18.050Z,33.00
2022-08-04T10:48:34.167Z,33.00
2022-08-04T10:49:42.614Z,33.00
2022-08-04T10:51:09.734Z,33.20
2022-08-04T10:52:17.980Z,33.30
2022-08-04T10:53:22.824Z,33.50
2022-08-04T10:54:37.341Z,33.70
2022-08-04T10:56:07.976Z,33.90
2022-08-04T10:57:13.654Z,34.00
2022-08-04T10:58:22.395Z,34.00
2022-08-04T11:00:00.680Z,34.10
2022-08-04T11:01:12.629Z,34.30
2022-08-04T11:02:47.291Z,34.50
2022-08-04T11:03:56.541Z,34.60
2022-08-04T11:05:18.979Z,34.60
2022-08-04T11:06:21.620Z,34.70
2022-08-04T11:07:25.006Z,34.70
2022-08-04T11:08:37.215Z,34.70
2022-08-04T11:09:41.107Z,34.70
2022-08-04T11:11:03.495Z,34.80
2022-08-04T11:12:15.789Z,34.80
2022-08-04T11:13:22.222Z,34.90
2022-08-04T11:14:42.271Z,35.00
2022-08-04T11:15:52.926Z,35.20
2022-08-04T11:17:21.372Z,35.30
2022-08-04T11:18:32.261Z,35.30
2022-08-04T11:19:54.575Z,35.30
2022-08-04T11:21:15.708Z,35.40
2022-08-04T11:22:23.790Z,35.40
2022-08-04T11:23:31.900Z,35.40
2022-08-04T11:24:40.924Z,35.30
2022-08-04T11:26:05.999Z,35.30
2022-08-04T11:27:14.770Z,35.40
2022-08-04T11:28:33.267Z,35.40
2022-08-04T11:30:03.896Z,35.30
2022-08-04T11:31:12.503Z,35.20
2022-08-04T11:32:20.410Z,35.10
2022-08-04T11:33:35.244Z,35.20
2022-08-04T11:34:44.151Z,35.20
2022-08-04T11:36:03.940Z,35.20
2022-08-04T11:37:28.852Z,35.30
2022-08-04T11:38:58.279Z,35.30
2022-08-04T11:40:09.577Z,35.50
2022-08-04T11:41:19.825Z,35.70
2022-08-04T11:42:29.360Z,35.80
2022-08-04T11:43:56.183Z,36.00
2022-08-04T11:45:13.291Z,36.10
2022-08-04T11:46:24.805Z,36.30
2022-08-04T11:47:41.784Z,36.40
2022-08-04T11:48:56.427Z,36.50
2022-08-04T11:50:04.637Z,36.30
2022-08-04T11:51:09.457Z,36.20
2022-08-04T11:52:14.273Z,35.90
2022-08-04T11:53:23.501Z,35.80
2022-08-04T11:54:25.348Z,35.70
2022-08-04T11:55:28.843Z,35.80
2022-08-04T11:56:37.242Z,35.80
2022-08-04T11:57:40.518Z,35.80
2022-08-04T11:58:50.551Z,35.90
2022-08-04T12:00:10.626Z,36.00
2022-08-04T12:01:41.560Z,36.10
2022-08-04T12:02:52.165Z,36.20
2022-08-04T12:04:13.774Z,36.20
2022-08-04T12:05:35.389Z,36.20
2022-08-04T12:07:15.055Z,36.20
2022-08-04T12:08:47.846Z,36.20
2022-08-04T12:10:00.532Z,36.10
2022-08-04T12:11:26.014Z,36.00
2022-08-04T12:12:38.891Z,36.00
2022-08-04T12:14:00.731Z,36.00
2022-08-04T12:15:14.096Z,36.10
2022-08-04T12:16:24.395Z,36.10
2022-08-04T12:17:52.715Z,36.10
2022-08-04T12:18:58.982Z,35.90
2022-08-04T12:20:32.230Z,35.80
2022-08-04T12:21:44.213Z,35.80
2022-08-04T12:22:56.081Z,35.90
2022-08-04T12:24:20.793Z,36.00
2022-08-04T12:25:32.924Z,36.20
2022-08-04T12:26:43.540Z,36.20
2022-08-04T12:28:15.209Z,36.30
2022-08-04T12:29:19.929Z,36.30
2022-08-04T12:30:59.533Z,36.40
2022-08-04T12:31:50.172Z,36.40
2022-08-04T12:33:03.646Z,36.50
2022-08-04T12:34:14.634Z,36.40
2022-08-04T12:35:30.975Z,36.30
2022-08-04T12:37:06.816Z,36.10
2022-08-04T12:38:14.984Z,36.00
2022-08-04T12:39:19.043Z,36.00
2022-08-04T12:40:30.122Z,36.10
2022-08-04T12:41:39.698Z,36.30
2022-08-04T12:42:56.136Z,36.40
2022-08-04T12:44:07.464Z,36.50
2022-08-04T12:45:30.451Z,36.40
2022-08-04T12:46:33.235Z,36.40
2022-08-04T12:47:36.945Z,36.40
2022-08-04T12:48:40.053Z,36.60
2022-08-04T12:50:00.184Z,36.70
2022-08-04T12:51:03.682Z,36.80
2022-08-04T12:52:09.949Z,36.80
2022-08-04T12:53:19.443Z,36.70
2022-08-04T12:54:36.890Z,36.80
2022-08-04T12:55:44.986Z,36.80
2022-08-04T12:57:06.319Z,36.80
2022-08-04T12:58:16.211Z,36.80
2022-08-04T12:59:41.273Z,36.90
2022-08-04T13:00:44.658Z,37.10
2022-08-04T13:02:08.488Z,37.00
2022-08-04T13:03:16.752Z,36.90
2022-08-04T13:04:29.541Z,36.90
2022-08-04T13:05:33.234Z,36.80
2022-08-04T13:06:36.203Z,36.80
2022-08-04T13:07:46.228Z,36.80
2022-08-04T13:08:49.104Z,36.50
2022-08-04T13:09:52.286Z,36.50
2022-08-04T13:10:58.858Z,36.60
2022-08-04T13:12:16.267Z,36.60
2022-08-04T13:13:28.979Z,36.60
2022-08-04T13:14:37.796Z,36.50
2022-08-04T13:15:47.693Z,36.40
2022-08-04T13:17:01.284Z,36.40
2022-08-04T13:18:14.781Z,36.40
2022-08-04T13:19:17.688Z,36.40
2022-08-04T13:20:28.513Z,36.40
2022-08-04T13:21:49.825Z,36.40
2022-08-04T13:23:09.590Z,36.40
2022-08-04T13:24:22.881Z,36.30
2022-08-04T13:26:44.666Z,36.30
2022-08-04T13:27:09.063Z,36.30
2022-08-04T13:28:47.110Z,36.40
2022-08-04T13:29:59.838Z,36.40
2022-08-04T13:31:10.196Z,36.40
2022-08-04T13:32:17.639Z,36.30
2022-08-04T13:33:20.416Z,36.40
2022-08-04T13:34:23.393Z,36.50
2022-08-04T13:35:55.563Z,36.60
2022-08-04T13:36:50.360Z,36.70
2022-08-04T13:37:55.282Z,36.80
2022-08-04T13:39:07.500Z,36.90
2022-08-04T13:40:14.445Z,36.80
2022-08-04T13:41:18.014Z,36.80
2022-08-04T13:42:20.901Z,36.80
2022-08-04T13:44:15.860Z,36.80
2022-08-04T13:44:58.482Z,36.90
2022-08-04T13:46:06.148Z,37.00
2022-08-04T13:47:19.384Z,37.10
2022-08-04T13:48:32.311Z,37.10
2022-08-04T13:49:42.607Z,37.20
2022-08-04T13:51:05.183Z,37.40
2022-08-04T13:52:11.172Z,37.50
2022-08-04T13:53:17.891Z,37.50
2022-08-04T13:54:24.452Z,37.30
2022-08-04T13:55:35.427Z,37.40
2022-08-04T13:56:40.646Z,37.40
2022-08-04T13:57:45.462Z,37.50
2022-08-04T14:00:30.682Z,37.40
2022-08-04T14:01:47.424Z,37.10
2022-08-04T14:04:51.864Z,36.80
2022-08-04T14:06:10.091Z,36.70
2022-08-04T14:07:21.357Z,36.80
2022-08-04T14:08:33.322Z,36.90
2022-08-04T14:09:39.105Z,37.00
2022-08-04T14:10:53.341Z,37.20
2022-08-04T14:12:37.813Z,37.30
2022-08-04T14:13:41.014Z,37.40
2022-08-04T14:14:51.112Z,37.40
2022-08-04T14:16:03.787Z,37.40
2022-08-04T14:17:19.831Z,37.30
2022-08-04T14:18:30.456Z,37.20
2022-08-04T14:19:50.204Z,37.10
2022-08-04T14:21:05.285Z,36.80
2022-08-04T14:22:07.348Z,36.90
2022-08-04T14:23:33.490Z,36.90
2022-08-04T14:24:35.721Z,37.10
2022-08-04T14:25:37.877Z,37.40
2022-08-04T14:26:39.932Z,37.40
2022-08-04T14:27:52.015Z,37.50
2022-08-04T14:29:27.399Z,37.50
2022-08-04T14:30:36.990Z,37.60
2022-08-04T14:31:55.327Z,37.60
2022-08-04T14:34:01.837Z,37.70
2022-08-04T14:34:38.969Z,37.80
2022-08-04T14:35:55.943Z,37.90
2022-08-04T14:37:16.722Z,38.00
2022-08-04T14:39:07.886Z,38.10
2022-08-04T14:40:30.680Z,37.80
2022-08-04T14:41:46.055Z,37.40
2022-08-04T14:42:55.139Z,37.20
2022-08-04T14:44:03.800Z,37.10
2022-08-04T14:45:07.204Z,37.00
2022-08-04T14:46:10.763Z,37.00
2022-08-04T14:47:16.044Z,37.10
2022-08-04T14:48:21.343Z,37.10
2022-08-04T14:49:24.011Z,37.30
2022-08-04T14:50:46.727Z,37.30
2022-08-04T14:51:55.234Z,37.40
2022-08-04T14:53:07.502Z,37.40
2022-08-04T14:54:18.520Z,37.40
2022-08-04T14:55:22.619Z,37.40
2022-08-04T14:56:46.157Z,37.30
2022-08-04T14:58:34.496Z,37.20
2022-08-04T14:59:11.967Z,36.90
2022-08-04T15:00:29.211Z,36.70
2022-08-04T15:01:32.170Z,36.60
2022-08-04T15:02:36.331Z,36.40
2022-08-04T15:03:50.616Z,36.30
2022-08-04T15:04:54.655Z,36.40
2022-08-04T15:06:06.630Z,36.40
2022-08-04T15:07:20.862Z,36.60
2022-08-04T15:08:23.626Z,36.70
2022-08-04T15:09:32.130Z,36.80
2022-08-04T15:10:35.212Z,36.80
2022-08-04T15:11:43.148Z,36.80
2022-08-04T15:12:45.770Z,36.80
2022-08-04T15:13:48.327Z,36.90
2022-08-04T15:14:50.565Z,37.00
2022-08-04T15:16:06.418Z,37.10
2022-08-04T15:17:28.822Z,37.10
2022-08-04T15:18:32.089Z,37.00
2022-08-04T15:19:34.838Z,36.80
2022-08-04T15:20:39.069Z,36.90
2022-08-04T15:21:41.803Z,37.00
2022-08-04T15:22:44.106Z,37.10
2022-08-04T15:23:46.768Z,37.20
2022-08-04T15:24:54.989Z,37.10
2022-08-04T15:26:02.545Z,37.20
2022-08-04T15:27:05.726Z,37.20
2022-08-04T15:29:59.297Z,36.90
2022-08-04T15:31:11.708Z,36.80
2022-08-04T15:32:31.168Z,36.70
2022-08-04T15:33:34.368Z,36.60
2022-08-04T15:37:07.037Z,36.30
2022-08-04T15:38:23.224Z,36.10
2022-08-04T15:39:44.117Z,36.00
2022-08-04T15:40:55.593Z,35.80
2022-08-04T15:42:03.768Z,35.70
2022-08-04T15:43:22.129Z,35.70
2022-08-04T15:44:24.082Z,35.70
2022-08-04T15:46:37.102Z,35.60
2022-08-04T15:46:51.336Z,35.40
2022-08-04T15:48:05.703Z,35.40
2022-08-04T15:49:20.627Z,35.40
2022-08-04T15:50:27.989Z,35.40
2022-08-04T15:51:32.955Z,35.40
2022-08-04T15:53:00.729Z,35.40
2022-08-04T15:54:16.853Z,35.40
2022-08-04T15:55:39.171Z,35.40
2022-08-04T15:57:02.702Z,35.40
2022-08-04T15:58:16.295Z,35.40
2022-08-04T16:00:00.658Z,35.40
2022-08-04T16:01:02.903Z,35.50
2022-08-04T16:02:30.713Z,35.50
2022-08-04T16:03:58.717Z,35.60
2022-08-04T16:05:20.636Z,35.60
2022-08-04T16:06:22.793Z,35.60
2022-08-04T16:07:53.632Z,35.60
2022-08-04T16:09:00.809Z,35.70
2022-08-04T16:10:31.630Z,35.60